RYR12ZY LMML-LIRN
Flight info
| Callsign | RYR12ZY |
|---|---|
| Flight time | 1h 4m |
| Altitude | 34000 |
| Route | GZO P623 OLLEK DCT ARFOL DCT ROMSU DCT UXUTA DCT DIRED DCT NAXES/N0379F180 T92 SOR |
| Aircraft | B739/M-SDE2E3FGHIRWXY/LB1 |
Departure
| Time | 2026-05-04 11:37 |
|---|---|
| Airport | Malta International Airport (LMML) |
Arrival
| Time | 2026-05-04 12:42 |
|---|---|
| Airport | Naples International Airport (LIRN) |
| Time | Latitude | Longitude | Altitude | Speed | Heading |
|---|---|---|---|---|---|
| 2026-05-04 11:27 | 35.84860 | 14.49456 | 258 ft | 0 kts | 359° |
| 2026-05-04 11:31 | 35.84798 | 14.49469 | 258 ft | 2 kts | 337° |
| 2026-05-04 11:33 | 35.84792 | 14.49471 | 258 ft | 1 kts | 323° |
| 2026-05-04 11:33 | 35.84801 | 14.49444 | 258 ft | 8 kts | 291° |
| 2026-05-04 11:33 | 35.84849 | 14.49372 | 258 ft | 13 kts | 316° |
| 2026-05-04 11:34 | 35.84911 | 14.49294 | 258 ft | 13 kts | 314° |
| 2026-05-04 11:34 | 35.84929 | 14.49193 | 257 ft | 13 kts | 240° |
| 2026-05-04 11:34 | 35.84909 | 14.49094 | 258 ft | 15 kts | 302° |
| 2026-05-04 11:34 | 35.84969 | 14.48987 | 258 ft | 15 kts | 298° |
| 2026-05-04 11:35 | 35.84998 | 14.48866 | 258 ft | 14 kts | 284° |
| 2026-05-04 11:35 | 35.85026 | 14.48750 | 261 ft | 14 kts | 289° |
| 2026-05-04 11:35 | 35.85062 | 14.48654 | 265 ft | 6 kts | 296° |
| 2026-05-04 11:35 | 35.85064 | 14.48644 | 265 ft | 3 kts | 285° |
| 2026-05-04 11:36 | 35.85049 | 14.48628 | 265 ft | 3 kts | 179° |
| 2026-05-04 11:36 | 35.85021 | 14.48648 | 264 ft | 1 kts | 136° |
| 2026-05-04 11:36 | 35.85008 | 14.48663 | 263 ft | 21 kts | 135° |
| 2026-05-04 11:36 | 35.84714 | 14.49027 | 258 ft | 97 kts | 135° |
| 2026-05-04 11:37 | 35.84087 | 14.49800 | 256 ft | 156 kts | 135° |
| 2026-05-04 11:37 | 35.83274 | 14.50799 | 672 ft | 172 kts | 138° |
| 2026-05-04 11:37 | 35.82418 | 14.51872 | 1390 ft | 178 kts | 138° |
| 2026-05-04 11:37 | 35.81524 | 14.52933 | 2296 ft | 178 kts | 136° |
| 2026-05-04 11:38 | 35.80598 | 14.53868 | 3318 ft | 171 kts | 168° |
| 2026-05-04 11:38 | 35.79534 | 14.53831 | 4262 ft | 139 kts | 199° |
| 2026-05-04 11:38 | 35.78766 | 14.53161 | 4681 ft | 146 kts | 238° |
| 2026-05-04 11:38 | 35.78450 | 14.51849 | 4758 ft | 179 kts | 276° |
| 2026-05-04 11:39 | 35.78999 | 14.50384 | 4997 ft | 204 kts | 313° |
| 2026-05-04 11:39 | 35.80072 | 14.49076 | 5191 ft | 233 kts | 316° |
| 2026-05-04 11:40 | 35.88858 | 14.41694 | 9942 ft | 277 kts | 5° |
| 2026-05-04 11:41 | 35.90804 | 14.41949 | 10600 ft | 288 kts | 5° |
| 2026-05-04 11:41 | 35.92889 | 14.42238 | 10789 ft | 315 kts | 5° |
| 2026-05-04 11:41 | 35.95127 | 14.42549 | 11247 ft | 330 kts | 5° |
| 2026-05-04 11:41 | 35.97430 | 14.42870 | 11930 ft | 336 kts | 5° |
| 2026-05-04 11:42 | 35.99763 | 14.43188 | 12694 ft | 339 kts | 4° |
| 2026-05-04 11:42 | 36.02124 | 14.43504 | 13445 ft | 343 kts | 4° |
| 2026-05-04 11:42 | 36.04508 | 14.43820 | 14182 ft | 347 kts | 4° |
| 2026-05-04 11:42 | 36.06918 | 14.44137 | 14872 ft | 350 kts | 4° |
| 2026-05-04 11:43 | 36.09342 | 14.44455 | 15605 ft | 351 kts | 3° |
| 2026-05-04 11:43 | 36.11780 | 14.44774 | 16322 ft | 353 kts | 3° |
| 2026-05-04 11:43 | 36.14236 | 14.45094 | 17005 ft | 356 kts | 3° |
| 2026-05-04 11:43 | 36.16709 | 14.45417 | 17697 ft | 359 kts | 3° |
| 2026-05-04 11:44 | 36.19204 | 14.45742 | 18374 ft | 362 kts | 3° |
| 2026-05-04 11:44 | 36.21682 | 14.46065 | 18964 ft | 365 kts | 3° |
| 2026-05-04 11:44 | 36.24216 | 14.46395 | 19543 ft | 368 kts | 2° |
| 2026-05-04 11:44 | 36.26766 | 14.46728 | 20136 ft | 370 kts | 2° |
| 2026-05-04 11:45 | 36.29340 | 14.47065 | 20722 ft | 373 kts | 2° |
| 2026-05-04 11:45 | 36.31930 | 14.47403 | 21293 ft | 376 kts | 2° |
| 2026-05-04 11:45 | 36.34542 | 14.47745 | 21862 ft | 379 kts | 2° |
| 2026-05-04 11:45 | 36.37175 | 14.48089 | 22420 ft | 382 kts | 2° |
| 2026-05-04 11:46 | 36.39827 | 14.48436 | 22966 ft | 385 kts | 1° |
| 2026-05-04 11:46 | 36.42501 | 14.48787 | 23503 ft | 388 kts | 1° |
| 2026-05-04 11:46 | 36.45198 | 14.49140 | 24007 ft | 391 kts | 1° |
| 2026-05-04 11:46 | 36.47907 | 14.49497 | 24480 ft | 393 kts | 1° |
| 2026-05-04 11:47 | 36.50630 | 14.49855 | 24987 ft | 394 kts | 1° |
| 2026-05-04 11:47 | 36.53360 | 14.50214 | 25466 ft | 396 kts | 1° |
| 2026-05-04 11:47 | 36.56105 | 14.50576 | 25948 ft | 397 kts | 1° |
| 2026-05-04 11:47 | 36.58861 | 14.50939 | 26424 ft | 399 kts | 1° |
| 2026-05-04 11:48 | 36.61628 | 14.51304 | 26892 ft | 401 kts | 1° |
| 2026-05-04 11:48 | 36.64407 | 14.51670 | 27376 ft | 402 kts | 1° |
| 2026-05-04 11:48 | 36.67181 | 14.52037 | 27973 ft | 399 kts | 1° |
| 2026-05-04 11:48 | 36.69924 | 14.52402 | 28697 ft | 394 kts | 1° |
| 2026-05-04 11:49 | 36.72637 | 14.52764 | 29430 ft | 390 kts | 0° |
| 2026-05-04 11:49 | 36.75325 | 14.53121 | 30069 ft | 387 kts | 0° |
| 2026-05-04 11:49 | 36.77997 | 14.53475 | 30593 ft | 386 kts | 0° |
| 2026-05-04 11:49 | 36.80660 | 14.53827 | 31072 ft | 384 kts | 0° |
| 2026-05-04 11:50 | 36.83316 | 14.54178 | 31518 ft | 383 kts | 0° |
| 2026-05-04 11:50 | 36.85968 | 14.54529 | 31942 ft | 383 kts | 360° |
| 2026-05-04 11:50 | 36.88620 | 14.54879 | 32201 ft | 384 kts | 360° |
| 2026-05-04 11:51 | 36.93932 | 14.55584 | 32200 ft | 382 kts | 360° |
| 2026-05-04 11:51 | 36.99205 | 14.56286 | 32216 ft | 380 kts | 360° |
| 2026-05-04 11:52 | 37.04467 | 14.56987 | 32218 ft | 380 kts | 360° |
| 2026-05-04 11:52 | 37.09691 | 14.57683 | 32220 ft | 380 kts | 360° |
| 2026-05-04 11:53 | 37.14950 | 14.58385 | 32207 ft | 380 kts | 0° |
| 2026-05-04 11:53 | 37.20212 | 14.59089 | 32206 ft | 380 kts | 0° |
| 2026-05-04 11:55 | 37.41250 | 14.61914 | 32175 ft | 379 kts | 0° |
| 2026-05-04 11:56 | 37.46506 | 14.62622 | 32169 ft | 380 kts | 0° |
| 2026-05-04 11:56 | 37.51771 | 14.63332 | 32175 ft | 381 kts | 0° |
| 2026-05-04 11:57 | 37.57044 | 14.64044 | 32167 ft | 382 kts | 0° |
| 2026-05-04 11:57 | 37.62327 | 14.64759 | 32163 ft | 382 kts | 0° |
| 2026-05-04 11:58 | 37.67615 | 14.65476 | 32157 ft | 383 kts | 0° |
| 2026-05-04 11:58 | 37.72874 | 14.66190 | 32154 ft | 382 kts | 0° |
| 2026-05-04 11:59 | 37.78167 | 14.66909 | 32162 ft | 382 kts | 0° |
| 2026-05-04 11:59 | 37.83457 | 14.67629 | 32160 ft | 382 kts | 360° |
| 2026-05-04 12:00 | 37.88745 | 14.68349 | 32152 ft | 382 kts | 0° |
| 2026-05-04 12:00 | 37.94022 | 14.68953 | 32163 ft | 377 kts | 354° |
| 2026-05-04 12:01 | 37.99220 | 14.68479 | 32170 ft | 374 kts | 350° |
| 2026-05-04 12:02 | 38.17378 | 14.66500 | 32169 ft | 374 kts | 350° |
| 2026-05-04 12:03 | 38.22577 | 14.65952 | 32166 ft | 375 kts | 350° |
| 2026-05-04 12:03 | 38.27778 | 14.65404 | 32159 ft | 375 kts | 350° |
| 2026-05-04 12:04 | 38.32984 | 14.64855 | 32164 ft | 376 kts | 350° |
| 2026-05-04 12:04 | 38.38163 | 14.64308 | 32164 ft | 376 kts | 350° |
| 2026-05-04 12:05 | 38.43375 | 14.63757 | 32164 ft | 376 kts | 350° |
| 2026-05-04 12:05 | 38.48593 | 14.63204 | 32161 ft | 376 kts | 349° |
| 2026-05-04 12:06 | 38.53815 | 14.62651 | 32161 ft | 376 kts | 349° |
| 2026-05-04 12:06 | 38.59034 | 14.62096 | 32166 ft | 376 kts | 349° |
| 2026-05-04 12:07 | 38.64255 | 14.61541 | 32165 ft | 377 kts | 349° |
| 2026-05-04 12:07 | 38.69480 | 14.60984 | 32166 ft | 377 kts | 349° |
| 2026-05-04 12:08 | 38.74705 | 14.60426 | 32166 ft | 377 kts | 349° |
| 2026-05-04 12:08 | 38.79927 | 14.59868 | 32164 ft | 377 kts | 349° |
| 2026-05-04 12:09 | 38.85156 | 14.59309 | 32165 ft | 377 kts | 349° |
| 2026-05-04 12:09 | 38.90381 | 14.58749 | 32167 ft | 377 kts | 349° |
| 2026-05-04 12:10 | 38.95607 | 14.58188 | 32168 ft | 377 kts | 349° |
| 2026-05-04 12:10 | 39.00838 | 14.57625 | 32167 ft | 377 kts | 349° |
| 2026-05-04 12:11 | 39.06067 | 14.57062 | 32165 ft | 377 kts | 349° |
| 2026-05-04 12:11 | 39.11300 | 14.56498 | 32173 ft | 377 kts | 349° |
| 2026-05-04 12:12 | 39.16501 | 14.55936 | 32169 ft | 378 kts | 349° |
| 2026-05-04 12:12 | 39.21740 | 14.55370 | 32168 ft | 378 kts | 349° |
| 2026-05-04 12:14 | 39.42745 | 14.53090 | 32181 ft | 379 kts | 349° |
| 2026-05-04 12:15 | 39.48002 | 14.52517 | 32173 ft | 379 kts | 349° |
| 2026-05-04 12:15 | 39.53268 | 14.51942 | 32172 ft | 380 kts | 349° |
| 2026-05-04 12:16 | 39.58523 | 14.51314 | 32165 ft | 378 kts | 347° |
| 2026-05-04 12:16 | 39.63736 | 14.50380 | 32170 ft | 377 kts | 346° |
| 2026-05-04 12:17 | 39.68799 | 14.49450 | 32156 ft | 360 kts | 346° |
| 2026-05-04 12:17 | 39.73737 | 14.48564 | 32179 ft | 358 kts | 346° |
| 2026-05-04 12:18 | 39.78620 | 14.47700 | 32155 ft | 347 kts | 346° |
| 2026-05-04 12:18 | 39.80993 | 14.47287 | 32147 ft | 332 kts | 346° |
| 2026-05-04 12:18 | 39.83233 | 14.46895 | 32150 ft | 317 kts | 345° |
| 2026-05-04 12:19 | 39.85377 | 14.46518 | 32151 ft | 305 kts | 345° |
| 2026-05-04 12:19 | 39.87473 | 14.46145 | 32171 ft | 306 kts | 345° |
| 2026-05-04 12:19 | 39.91811 | 14.45361 | 32192 ft | 324 kts | 345° |
| 2026-05-04 12:20 | 39.95559 | 14.44694 | 32175 ft | 328 kts | 345° |
| 2026-05-04 12:20 | 40.00813 | 14.43769 | 32169 ft | 327 kts | 345° |
| 2026-05-04 12:21 | 40.05305 | 14.42975 | 32164 ft | 325 kts | 345° |
| 2026-05-04 12:21 | 40.09760 | 14.42185 | 32163 ft | 321 kts | 345° |
| 2026-05-04 12:22 | 40.13460 | 14.41527 | 32169 ft | 319 kts | 345° |
| 2026-05-04 12:22 | 40.17919 | 14.40724 | 31544 ft | 344 kts | 346° |
| 2026-05-04 12:23 | 40.20379 | 14.40269 | 30956 ft | 368 kts | 346° |
| 2026-05-04 12:23 | 40.22907 | 14.39813 | 30300 ft | 374 kts | 347° |
| 2026-05-04 12:23 | 40.25494 | 14.39356 | 29567 ft | 376 kts | 347° |
| 2026-05-04 12:23 | 40.28098 | 14.38897 | 28826 ft | 378 kts | 348° |
| 2026-05-04 12:24 | 40.30713 | 14.38452 | 28108 ft | 381 kts | 351° |
| 2026-05-04 12:24 | 40.33387 | 14.38567 | 27393 ft | 390 kts | 5° |
| 2026-05-04 12:24 | 40.36036 | 14.39467 | 26724 ft | 397 kts | 15° |
| 2026-05-04 12:24 | 40.38563 | 14.41007 | 26062 ft | 403 kts | 23° |
| 2026-05-04 12:25 | 40.41030 | 14.42759 | 25421 ft | 404 kts | 24° |
| 2026-05-04 12:25 | 40.43490 | 14.44541 | 24820 ft | 404 kts | 25° |
| 2026-05-04 12:25 | 40.45946 | 14.46321 | 24241 ft | 403 kts | 25° |
| 2026-05-04 12:25 | 40.48404 | 14.48094 | 23655 ft | 402 kts | 25° |
| 2026-05-04 12:26 | 40.50860 | 14.49853 | 22980 ft | 402 kts | 25° |
| 2026-05-04 12:26 | 40.53307 | 14.51599 | 22317 ft | 398 kts | 25° |
| 2026-05-04 12:26 | 40.55714 | 14.53313 | 21593 ft | 390 kts | 25° |
| 2026-05-04 12:26 | 40.58083 | 14.54998 | 20883 ft | 384 kts | 25° |
| 2026-05-04 12:27 | 40.60415 | 14.56657 | 20196 ft | 378 kts | 26° |
| 2026-05-04 12:27 | 40.62718 | 14.58294 | 19528 ft | 373 kts | 26° |
| 2026-05-04 12:27 | 40.64989 | 14.59910 | 18869 ft | 370 kts | 27° |
| 2026-05-04 12:27 | 40.67240 | 14.61513 | 18147 ft | 367 kts | 27° |
| 2026-05-04 12:28 | 40.69475 | 14.63110 | 17409 ft | 363 kts | 27° |
| 2026-05-04 12:28 | 40.71688 | 14.64687 | 16661 ft | 360 kts | 27° |
| 2026-05-04 12:28 | 40.73886 | 14.66256 | 15939 ft | 357 kts | 27° |
| 2026-05-04 12:28 | 40.76061 | 14.67809 | 15240 ft | 354 kts | 27° |
| 2026-05-04 12:29 | 40.78190 | 14.69332 | 14827 ft | 343 kts | 27° |
| 2026-05-04 12:29 | 40.80256 | 14.70811 | 14423 ft | 332 kts | 27° |
| 2026-05-04 12:29 | 40.82257 | 14.72244 | 14043 ft | 322 kts | 28° |
| 2026-05-04 12:29 | 40.84200 | 14.73637 | 13638 ft | 313 kts | 28° |
| 2026-05-04 12:30 | 40.86089 | 14.74992 | 13249 ft | 304 kts | 28° |
| 2026-05-04 12:30 | 40.87922 | 14.76308 | 12884 ft | 296 kts | 28° |
| 2026-05-04 12:30 | 40.89710 | 14.77591 | 12542 ft | 291 kts | 28° |
| 2026-05-04 12:30 | 40.91498 | 14.78833 | 12206 ft | 289 kts | 20° |
| 2026-05-04 12:31 | 40.93432 | 14.79111 | 12050 ft | 276 kts | 347° |
| 2026-05-04 12:31 | 40.95208 | 14.78168 | 11335 ft | 283 kts | 326° |
| 2026-05-04 12:31 | 40.96775 | 14.76597 | 10584 ft | 290 kts | 320° |
| 2026-05-04 12:31 | 40.98323 | 14.74860 | 10009 ft | 291 kts | 319° |
| 2026-05-04 12:32 | 40.99903 | 14.73215 | 9438 ft | 289 kts | 330° |
| 2026-05-04 12:32 | 41.03642 | 14.73319 | 8541 ft | 278 kts | 35° |
| 2026-05-04 12:32 | 41.04988 | 14.75098 | 8147 ft | 272 kts | 52° |
| 2026-05-04 12:33 | 41.06236 | 14.76942 | 7701 ft | 269 kts | 33° |
| 2026-05-04 12:33 | 41.07973 | 14.77659 | 7273 ft | 261 kts | 358° |
| 2026-05-04 12:33 | 41.09640 | 14.76952 | 6863 ft | 250 kts | 321° |
| 2026-05-04 12:33 | 41.10564 | 14.75161 | 6700 ft | 230 kts | 282° |
| 2026-05-04 12:34 | 41.10442 | 14.73181 | 6626 ft | 208 kts | 248° |
| 2026-05-04 12:34 | 41.09705 | 14.71555 | 6613 ft | 206 kts | 227° |
| 2026-05-04 12:34 | 41.08709 | 14.70135 | 6649 ft | 217 kts | 227° |
| 2026-05-04 12:34 | 41.07675 | 14.68647 | 6639 ft | 221 kts | 227° |
| 2026-05-04 12:35 | 41.06672 | 14.67102 | 6635 ft | 221 kts | 233° |
| 2026-05-04 12:35 | 41.05786 | 14.65439 | 6637 ft | 221 kts | 236° |
| 2026-05-04 12:35 | 41.04948 | 14.63725 | 6602 ft | 222 kts | 237° |
| 2026-05-04 12:35 | 41.04116 | 14.61981 | 6306 ft | 226 kts | 238° |
| 2026-05-04 12:36 | 41.03291 | 14.60236 | 6001 ft | 221 kts | 238° |
| 2026-05-04 12:36 | 41.02483 | 14.58527 | 5663 ft | 218 kts | 238° |
| 2026-05-04 12:36 | 41.01691 | 14.56851 | 5361 ft | 212 kts | 238° |
| 2026-05-04 12:36 | 41.00917 | 14.55212 | 5051 ft | 208 kts | 238° |
| 2026-05-04 12:37 | 41.00158 | 14.53604 | 4751 ft | 205 kts | 238° |
| 2026-05-04 12:37 | 40.99410 | 14.52021 | 4448 ft | 200 kts | 238° |
| 2026-05-04 12:37 | 40.98687 | 14.50491 | 4188 ft | 192 kts | 238° |
| 2026-05-04 12:37 | 40.97985 | 14.49002 | 3878 ft | 187 kts | 238° |
| 2026-05-04 12:38 | 40.97312 | 14.47575 | 3611 ft | 179 kts | 239° |
| 2026-05-04 12:38 | 40.96668 | 14.46209 | 3365 ft | 172 kts | 239° |
| 2026-05-04 12:38 | 40.96053 | 14.44904 | 3098 ft | 166 kts | 239° |
| 2026-05-04 12:38 | 40.95446 | 14.43618 | 2861 ft | 159 kts | 238° |
| 2026-05-04 12:39 | 40.94874 | 14.42404 | 2664 ft | 152 kts | 239° |
| 2026-05-04 12:39 | 40.94321 | 14.41232 | 2427 ft | 147 kts | 239° |
| 2026-05-04 12:39 | 40.93776 | 14.40072 | 2207 ft | 149 kts | 238° |
| 2026-05-04 12:39 | 40.93236 | 14.38925 | 1989 ft | 143 kts | 238° |
| 2026-05-04 12:40 | 40.92725 | 14.37840 | 1770 ft | 138 kts | 239° |
| 2026-05-04 12:40 | 40.92205 | 14.36756 | 1518 ft | 140 kts | 239° |
| 2026-05-04 12:40 | 40.91689 | 14.35665 | 1317 ft | 141 kts | 238° |
| 2026-05-04 12:40 | 40.91185 | 14.34571 | 1141 ft | 138 kts | 238° |
| 2026-05-04 12:41 | 40.90670 | 14.33457 | 907 ft | 141 kts | 236° |
| 2026-05-04 12:41 | 40.90157 | 14.32374 | 670 ft | 141 kts | 232° |
| 2026-05-04 12:41 | 40.89643 | 14.31291 | 475 ft | 139 kts | 236° |
| 2026-05-04 12:41 | 40.89140 | 14.30216 | 261 ft | 135 kts | 236° |
| 2026-05-04 12:42 | 40.88699 | 14.29287 | 261 ft | 99 kts | 238° |
| 2026-05-04 12:42 | 40.88482 | 14.28822 | 272 ft | 19 kts | 239° |
| 2026-05-04 12:42 | 40.88469 | 14.28794 | 273 ft | 6 kts | 235° |
| 2026-05-04 12:42 | 40.88411 | 14.28776 | 277 ft | 10 kts | 163° |
| 2026-05-04 12:43 | 40.88376 | 14.28798 | 275 ft | 3 kts | 152° |
| 2026-05-04 12:43 | 40.88361 | 14.28809 | 274 ft | 2 kts | 150° |
| 2026-05-04 12:43 | 40.88346 | 14.28820 | 275 ft | 2 kts | 150° |
| 2026-05-04 12:43 | 40.88332 | 14.28832 | 275 ft | 3 kts | 147° |
| 2026-05-04 12:44 | 40.88306 | 14.28854 | 275 ft | 7 kts | 148° |
| 2026-05-04 12:44 | 40.88248 | 14.28901 | 275 ft | 10 kts | 153° |
| 2026-05-04 12:44 | 40.88193 | 14.28860 | 276 ft | 10 kts | 230° |
| 2026-05-04 12:44 | 40.88153 | 14.28791 | 278 ft | 9 kts | 233° |
| 2026-05-04 12:45 | 40.88114 | 14.28724 | 280 ft | 9 kts | 231° |
| 2026-05-04 12:45 | 40.88076 | 14.28658 | 281 ft | 9 kts | 233° |
| 2026-05-04 12:45 | 40.88036 | 14.28587 | 283 ft | 11 kts | 233° |
| 2026-05-04 12:45 | 40.87985 | 14.28511 | 285 ft | 11 kts | 220° |
| 2026-05-04 12:46 | 40.87939 | 14.28437 | 287 ft | 11 kts | 262° |
| 2026-05-04 12:46 | 40.87936 | 14.28366 | 288 ft | 6 kts | 234° |
| 2026-05-04 12:46 | 40.87900 | 14.28347 | 293 ft | 6 kts | 189° |
| 2026-05-04 12:46 | 40.87878 | 14.28343 | 291 ft | 1 kts | 188° |